createdAt,value
2018-12-19T00:00:51.010Z,37.70
2018-12-19T00:03:20.222Z,43.70
2018-12-19T00:05:49.188Z,44.90
2018-12-19T00:08:18.911Z,50.20
2018-12-19T00:10:48.667Z,53.40
2018-12-19T00:15:55.308Z,58.50
2018-12-19T00:21:10.492Z,64.20
2018-12-19T00:23:40.439Z,60.50
2018-12-19T00:26:10.020Z,58.20
2018-12-19T00:28:38.885Z,59.50
2018-12-19T00:31:07.627Z,60.20
2018-12-19T00:33:39.121Z,56.00
2018-12-19T00:36:09.593Z,56.90
2018-12-19T00:38:39.511Z,56.20
2018-12-19T00:41:12.432Z,55.40
2018-12-19T00:48:53.513Z,59.10
2018-12-19T00:51:23.191Z,58.10
2018-12-19T00:53:52.629Z,58.20
2018-12-19T00:56:22.413Z,57.90
2018-12-19T01:01:36.538Z,56.20
2018-12-19T01:04:06.529Z,55.70
2018-12-19T01:06:36.767Z,56.00
2018-12-19T01:09:07.836Z,56.80
2018-12-19T01:11:38.121Z,55.90
2018-12-19T01:16:46.389Z,56.30
2018-12-19T01:19:20.464Z,56.50
2018-12-19T01:21:54.934Z,56.20
2018-12-19T01:24:29.368Z,55.90
2018-12-19T01:26:58.816Z,55.20
2018-12-19T01:29:29.916Z,54.50
2018-12-19T01:37:14.583Z,53.60
2018-12-19T01:39:45.908Z,54.50
2018-12-19T01:42:16.685Z,53.80
2018-12-19T01:52:45.657Z,56.70
2018-12-19T01:57:49.533Z,56.60
2018-12-19T02:02:56.480Z,57.90
2018-12-19T02:08:09.193Z,58.50
2018-12-19T02:13:17.061Z,60.60
2018-12-19T02:15:48.259Z,60.60
2018-12-19T02:23:29.482Z,64.20
2018-12-19T02:25:59.884Z,63.90
2018-12-19T02:28:30.928Z,63.60
2018-12-19T02:31:00.595Z,64.50
2018-12-19T02:33:32.384Z,63.80
2018-12-19T02:36:02.145Z,64.10
2018-12-19T02:41:06.494Z,64.20
2018-12-19T02:43:38.483Z,63.60
2018-12-19T02:51:24.138Z,62.30
2018-12-19T02:53:56.862Z,62.50
2018-12-19T02:56:27.607Z,62.60
2018-12-19T02:58:58.248Z,63.00
2018-12-19T03:01:30.781Z,62.10
2018-12-19T03:04:01.605Z,61.40
2018-12-19T03:06:35.820Z,61.90
2018-12-19T03:09:08.588Z,62.10
2018-12-19T03:14:14.929Z,63.00
2018-12-19T03:16:46.610Z,63.60
2018-12-19T03:21:57.745Z,64.70
2018-12-19T03:24:27.203Z,65.20
2018-12-19T03:26:57.454Z,65.40
2018-12-19T03:29:29.791Z,65.00
2018-12-19T03:32:01.773Z,65.40
2018-12-19T03:37:06.262Z,66.50
2018-12-19T03:39:35.683Z,66.60
2018-12-19T03:44:39.801Z,66.90
2018-12-19T03:47:11.245Z,66.70
2018-12-19T03:49:41.412Z,66.60
2018-12-19T03:52:10.726Z,67.10
2018-12-19T03:54:42.062Z,67.10
2018-12-19T03:57:12.527Z,66.80
2018-12-19T03:59:43.561Z,67.50
2018-12-19T04:02:13.027Z,68.20
2018-12-19T04:04:42.543Z,68.20
2018-12-19T04:07:11.645Z,68.90
2018-12-19T04:09:40.484Z,68.70
2018-12-19T04:12:09.482Z,69.70
2018-12-19T04:14:38.612Z,69.10
2018-12-19T04:17:07.951Z,69.30
2018-12-19T04:19:37.251Z,68.70
2018-12-19T04:22:06.339Z,68.60
2018-12-19T04:24:43.377Z,68.30
2018-12-19T04:27:12.015Z,68.00
2018-12-19T04:29:41.161Z,68.10
2018-12-19T04:32:09.875Z,68.10
2018-12-19T04:34:38.906Z,68.20
2018-12-19T04:37:08.276Z,68.10
2018-12-19T04:39:37.267Z,67.80
2018-12-19T04:42:06.439Z,67.50
2018-12-19T04:44:35.683Z,67.30
2018-12-19T04:47:05.062Z,67.40
2018-12-19T04:49:34.060Z,67.50
2018-12-19T04:52:04.182Z,67.50
2018-12-19T04:54:33.936Z,68.30
2018-12-19T04:57:03.081Z,68.00
2018-12-19T04:59:32.415Z,68.80
2018-12-19T05:02:01.443Z,68.60
2018-12-19T05:04:30.536Z,68.90
2018-12-19T05:06:59.831Z,68.90
2018-12-19T05:09:28.516Z,69.50
2018-12-19T05:11:57.212Z,69.50
2018-12-19T05:14:26.162Z,69.20
2018-12-19T05:16:55.191Z,69.20
2018-12-19T05:19:23.894Z,69.70
2018-12-19T05:21:53.211Z,70.20
2018-12-19T05:24:22.307Z,71.10
2018-12-19T05:26:51.822Z,71.10
2018-12-19T05:29:20.807Z,71.60
2018-12-19T05:31:49.799Z,71.60
2018-12-19T05:34:19.133Z,71.90
2018-12-19T05:36:48.765Z,72.60
2018-12-19T05:39:17.830Z,74.00
2018-12-19T05:41:47.035Z,74.50
2018-12-19T05:44:16.111Z,75.00
2018-12-19T05:46:45.446Z,75.90
2018-12-19T05:49:14.547Z,77.30
2018-12-19T05:51:43.885Z,78.10
2018-12-19T05:54:12.937Z,79.60
2018-12-19T05:56:41.668Z,80.40
2018-12-19T05:59:10.348Z,81.40
2018-12-19T06:01:39.032Z,82.20
2018-12-19T06:04:15.488Z,82.50
2018-12-19T06:06:44.203Z,82.80
2018-12-19T06:09:13.261Z,83.20
2018-12-19T06:11:42.981Z,83.50
2018-12-19T06:14:12.326Z,84.00
2018-12-19T06:16:41.012Z,84.00
2018-12-19T06:19:10.113Z,84.70
2018-12-19T06:21:38.763Z,85.30
2018-12-19T06:24:07.495Z,86.10
2018-12-19T06:26:36.219Z,86.40
2018-12-19T06:29:05.014Z,87.10
2018-12-19T06:31:34.010Z,87.40
2018-12-19T06:34:03.214Z,87.60
2018-12-19T06:36:32.059Z,88.30
2018-12-19T06:39:00.769Z,88.60
2018-12-19T06:41:29.414Z,88.70
2018-12-19T06:43:58.498Z,88.90
2018-12-19T06:46:27.179Z,89.20
2018-12-19T06:48:56.428Z,88.80
2018-12-19T06:51:25.185Z,89.10
2018-12-19T06:53:53.863Z,89.00
2018-12-19T06:56:23.631Z,88.90
2018-12-19T06:58:52.428Z,88.80
2018-12-19T07:01:21.252Z,88.60
2018-12-19T07:03:50.558Z,88.60
2018-12-19T07:06:19.615Z,88.40
2018-12-19T07:08:49.236Z,88.60
2018-12-19T07:11:18.581Z,88.20
2018-12-19T07:13:47.563Z,88.20
2018-12-19T07:16:16.959Z,88.50
2018-12-19T07:18:46.072Z,89.00
2018-12-19T07:21:14.934Z,88.70
2018-12-19T07:23:44.028Z,88.90
2018-12-19T07:26:12.634Z,88.90
2018-12-19T07:28:42.171Z,89.50
2018-12-19T07:31:11.676Z,89.50
2018-12-19T07:33:41.010Z,90.00
2018-12-19T07:36:10.266Z,90.20
2018-12-19T07:38:39.818Z,90.40
2018-12-19T07:41:09.089Z,90.60
2018-12-19T07:43:38.329Z,90.70
2018-12-19T07:46:07.647Z,90.80
2018-12-19T07:48:37.036Z,90.80
2018-12-19T07:51:06.015Z,91.10
2018-12-19T07:53:35.294Z,91.30
2018-12-19T07:56:04.481Z,91.50
2018-12-19T07:58:33.716Z,91.50
2018-12-19T08:01:02.751Z,91.60
2018-12-19T08:03:31.828Z,91.70
2018-12-19T08:06:01.169Z,91.80
2018-12-19T08:08:30.136Z,91.90
2018-12-19T08:10:59.585Z,91.90
2018-12-19T08:13:28.401Z,91.80
2018-12-19T08:15:57.041Z,91.80
2018-12-19T08:18:25.675Z,91.60
2018-12-19T08:20:54.678Z,91.50
2018-12-19T08:23:23.978Z,91.20
2018-12-19T08:25:53.275Z,91.00
2018-12-19T08:28:22.583Z,90.50
2018-12-19T08:30:51.965Z,90.30
2018-12-19T08:33:22.346Z,90.10
2018-12-19T08:35:51.754Z,89.50
2018-12-19T08:38:21.302Z,88.80
2018-12-19T08:40:50.643Z,88.00
2018-12-19T08:43:19.643Z,87.40
2018-12-19T08:45:49.411Z,87.50
2018-12-19T08:48:19.062Z,87.40
2018-12-19T08:50:48.603Z,87.20
2018-12-19T08:53:17.853Z,87.40
2018-12-19T08:55:47.162Z,87.50
2018-12-19T08:58:16.457Z,87.80
2018-12-19T09:00:45.989Z,87.60
2018-12-19T09:03:15.027Z,87.80
2018-12-19T09:05:44.353Z,88.10
2018-12-19T09:08:13.556Z,87.90
2018-12-19T09:10:42.899Z,88.10
2018-12-19T09:13:12.309Z,88.10
2018-12-19T09:15:54.581Z,88.20
2018-12-19T09:18:23.634Z,88.20
2018-12-19T09:20:52.759Z,88.10
2018-12-19T09:23:21.831Z,88.10
2018-12-19T09:25:50.971Z,88.10
2018-12-19T09:28:20.038Z,88.20
2018-12-19T09:30:49.279Z,88.10
2018-12-19T09:33:18.519Z,88.20
2018-12-19T09:35:47.215Z,88.50
2018-12-19T09:38:15.918Z,89.10
2018-12-19T09:40:44.526Z,89.50
2018-12-19T09:43:13.163Z,90.10
2018-12-19T09:45:41.763Z,90.20
2018-12-19T09:48:10.586Z,90.40
2018-12-19T09:50:40.411Z,90.50
2018-12-19T09:53:09.686Z,90.60
2018-12-19T09:55:38.884Z,90.50
2018-12-19T09:58:07.815Z,90.70
2018-12-19T10:00:37.348Z,90.60
2018-12-19T10:03:06.877Z,90.60
2018-12-19T10:05:36.115Z,90.50
2018-12-19T10:08:05.299Z,90.40
2018-12-19T10:10:34.822Z,90.40
2018-12-19T10:13:03.506Z,90.80
2018-12-19T10:15:32.796Z,90.40
2018-12-19T10:18:01.927Z,90.40
2018-12-19T10:20:31.038Z,90.30
2018-12-19T10:22:59.773Z,90.30
2018-12-19T10:25:29.019Z,90.20
2018-12-19T10:27:57.678Z,90.00
2018-12-19T10:30:26.812Z,90.00
2018-12-19T10:32:55.954Z,89.90
2018-12-19T10:35:25.133Z,89.60
2018-12-19T10:37:54.531Z,89.60
2018-12-19T10:40:23.842Z,89.60
2018-12-19T10:42:53.219Z,89.10
2018-12-19T10:45:22.464Z,89.00
2018-12-19T10:47:51.572Z,88.90
2018-12-19T10:50:20.758Z,88.60
2018-12-19T10:52:50.029Z,88.70
2018-12-19T10:55:19.171Z,89.00
2018-12-19T10:57:48.427Z,88.80
2018-12-19T11:00:23.064Z,88.60
2018-12-19T11:02:52.132Z,88.90
2018-12-19T11:05:21.267Z,88.60
2018-12-19T11:07:49.887Z,88.60
2018-12-19T11:10:18.667Z,88.60
2018-12-19T11:12:47.361Z,88.80
2018-12-19T11:15:16.658Z,88.80
2018-12-19T11:17:45.881Z,88.30
2018-12-19T11:20:15.012Z,88.10
2018-12-19T11:22:44.542Z,88.40
2018-12-19T11:25:13.816Z,87.70
2018-12-19T11:27:43.408Z,87.70
2018-12-19T11:30:12.422Z,87.30
2018-12-19T11:32:41.489Z,87.10
2018-12-19T11:35:10.606Z,86.90
2018-12-19T11:37:39.683Z,86.60
2018-12-19T11:40:09.810Z,86.50
2018-12-19T11:42:38.888Z,86.00
2018-12-19T11:45:08.061Z,86.00
2018-12-19T11:47:36.669Z,86.20
2018-12-19T11:50:06.938Z,86.00
2018-12-19T11:52:36.092Z,85.80
2018-12-19T11:55:05.439Z,86.10
2018-12-19T11:57:34.986Z,86.00
2018-12-19T12:00:04.810Z,85.80
2018-12-19T12:02:34.113Z,85.80
2018-12-19T12:05:03.691Z,85.70
2018-12-19T12:07:32.981Z,85.40
2018-12-19T12:10:02.192Z,85.40
2018-12-19T12:12:31.701Z,85.40
2018-12-19T12:15:00.666Z,85.20
2018-12-19T12:17:29.733Z,86.00
2018-12-19T12:19:58.992Z,85.70
2018-12-19T12:22:28.291Z,85.80
2018-12-19T12:24:57.588Z,85.90
2018-12-19T12:27:26.506Z,86.10
2018-12-19T12:29:55.788Z,85.80
2018-12-19T12:32:24.789Z,85.50
2018-12-19T12:34:53.973Z,85.60
2018-12-19T12:37:22.721Z,85.40
2018-12-19T12:39:52.197Z,85.50
2018-12-19T12:42:21.613Z,85.50
2018-12-19T12:44:50.696Z,85.60
2018-12-19T12:47:19.745Z,85.60
2018-12-19T12:49:48.988Z,86.10
2018-12-19T12:52:18.287Z,85.40
2018-12-19T12:54:47.494Z,85.60
2018-12-19T12:57:16.976Z,85.50
2018-12-19T12:59:46.290Z,85.30
2018-12-19T13:02:15.355Z,85.10
2018-12-19T13:04:44.460Z,84.80
2018-12-19T13:07:13.655Z,84.90
2018-12-19T13:09:43.077Z,84.90
2018-12-19T13:12:12.151Z,84.50
2018-12-19T13:14:41.282Z,84.50
2018-12-19T13:17:10.502Z,84.20
2018-12-19T13:19:39.142Z,83.60
2018-12-19T13:22:07.781Z,83.60
2018-12-19T13:24:36.782Z,83.50
2018-12-19T13:27:06.094Z,83.80
2018-12-19T13:29:35.396Z,83.80
2018-12-19T13:32:04.548Z,83.90
2018-12-19T13:34:33.574Z,84.00
2018-12-19T13:37:03.116Z,84.00
2018-12-19T13:39:32.354Z,84.70
2018-12-19T13:42:05.601Z,84.60
2018-12-19T13:44:33.074Z,84.80
2018-12-19T13:47:02.151Z,85.00
2018-12-19T13:49:31.326Z,84.90
2018-12-19T13:52:00.651Z,84.40
2018-12-19T13:54:29.838Z,84.80
2018-12-19T13:56:58.805Z,84.80
2018-12-19T13:59:28.118Z,84.80
2018-12-19T14:01:56.723Z,84.80
2018-12-19T14:04:25.463Z,84.60
2018-12-19T14:06:54.773Z,84.50
2018-12-19T14:09:24.078Z,84.50
2018-12-19T14:11:53.351Z,84.00
2018-12-19T14:14:23.937Z,83.40
2018-12-19T14:16:53.201Z,83.20
2018-12-19T14:19:22.673Z,83.00
2018-12-19T14:21:52.005Z,82.80
2018-12-19T14:24:21.216Z,82.50
2018-12-19T14:26:50.514Z,82.40
2018-12-19T14:29:20.051Z,82.40
2018-12-19T14:31:49.325Z,82.00
2018-12-19T14:34:18.491Z,81.70
2018-12-19T14:36:47.818Z,81.70
2018-12-19T14:39:16.903Z,81.80
2018-12-19T14:41:46.566Z,82.10
2018-12-19T14:44:15.823Z,81.60
2018-12-19T14:46:45.025Z,81.80
2018-12-19T14:49:14.317Z,81.80
2018-12-19T14:51:43.464Z,81.50
2018-12-19T14:54:12.366Z,81.10
2018-12-19T14:56:41.268Z,81.00
2018-12-19T14:59:10.571Z,81.20
2018-12-19T15:01:39.700Z,80.60
2018-12-19T15:04:09.037Z,81.00
2018-12-19T15:06:38.363Z,81.40
2018-12-19T15:09:07.642Z,81.10
2018-12-19T15:11:36.802Z,81.20
2018-12-19T15:14:06.126Z,81.60
2018-12-19T15:16:35.323Z,81.30
2018-12-19T15:19:04.490Z,81.70
2018-12-19T15:21:33.597Z,82.40
2018-12-19T15:24:02.866Z,82.80
2018-12-19T15:26:32.351Z,83.30
2018-12-19T15:29:01.482Z,83.40
2018-12-19T15:31:30.632Z,82.80
2018-12-19T15:33:59.394Z,82.80
2018-12-19T15:36:28.763Z,83.10
2018-12-19T15:38:58.145Z,83.00
2018-12-19T15:41:27.422Z,83.10
2018-12-19T15:43:56.524Z,83.90
2018-12-19T15:46:25.499Z,84.00
2018-12-19T15:48:54.794Z,84.20
2018-12-19T15:51:23.743Z,85.10
2018-12-19T15:53:53.031Z,85.80
2018-12-19T15:56:22.066Z,86.30
2018-12-19T15:58:51.033Z,86.50
2018-12-19T16:01:20.058Z,87.00
2018-12-19T16:03:49.775Z,87.40
2018-12-19T16:06:18.899Z,87.30
2018-12-19T16:08:48.192Z,87.70
2018-12-19T16:11:17.295Z,87.50
2018-12-19T16:13:45.962Z,87.90
2018-12-19T16:16:15.103Z,87.90
2018-12-19T16:18:44.500Z,88.00
2018-12-19T16:21:13.153Z,88.20
2018-12-19T16:23:42.923Z,88.20
2018-12-19T16:26:11.932Z,88.60
2018-12-19T16:28:41.278Z,88.40
2018-12-19T16:31:10.614Z,88.90
2018-12-19T16:33:39.468Z,88.80
2018-12-19T16:36:08.777Z,89.00
2018-12-19T16:38:38.113Z,88.80
2018-12-19T16:41:07.787Z,88.90
2018-12-19T16:43:37.111Z,89.10
2018-12-19T16:46:06.005Z,88.90
2018-12-19T16:48:35.083Z,88.80
2018-12-19T16:51:04.150Z,88.00
2018-12-19T16:53:33.496Z,87.60
2018-12-19T16:56:02.931Z,87.20
2018-12-19T16:58:31.568Z,87.10
2018-12-19T17:01:00.212Z,86.70
2018-12-19T17:03:28.907Z,85.00
2018-12-19T17:05:57.793Z,83.70
2018-12-19T17:08:27.099Z,82.60
2018-12-19T17:10:56.582Z,82.10
2018-12-19T17:13:25.497Z,81.00
2018-12-19T17:15:55.032Z,79.80
2018-12-19T17:18:24.646Z,78.80
2018-12-19T17:20:54.696Z,76.00
2018-12-19T17:23:24.724Z,75.70
2018-12-19T17:25:54.456Z,76.00
2018-12-19T17:28:23.856Z,76.40
2018-12-19T17:30:53.545Z,76.40
2018-12-19T17:33:23.070Z,74.90
2018-12-19T17:35:52.602Z,73.60
2018-12-19T17:38:22.339Z,72.40
2018-12-19T17:40:51.208Z,71.10
2018-12-19T17:43:20.465Z,70.30
2018-12-19T17:45:49.301Z,70.00
2018-12-19T17:48:18.157Z,69.20
2018-12-19T17:50:47.809Z,69.10
2018-12-19T17:53:17.527Z,69.00
2018-12-19T17:55:47.048Z,68.50
2018-12-19T17:58:16.785Z,68.60
2018-12-19T18:00:46.123Z,68.80
2018-12-19T18:03:15.608Z,69.60
2018-12-19T18:05:45.095Z,69.10
2018-12-19T18:08:15.155Z,67.10
2018-12-19T18:10:44.329Z,67.70
2018-12-19T18:13:13.990Z,68.10
2018-12-19T18:15:43.687Z,66.60
2018-12-19T18:18:13.600Z,66.60
2018-12-19T18:20:43.367Z,65.20
2018-12-19T18:23:12.845Z,65.60
2018-12-19T18:25:42.121Z,64.30
2018-12-19T18:28:10.963Z,62.20
2018-12-19T18:30:39.819Z,59.60
2018-12-19T18:33:08.684Z,55.60
2018-12-19T18:35:37.535Z,54.20
2018-12-19T18:38:07.449Z,52.00
2018-12-19T18:40:37.132Z,50.90
2018-12-19T18:43:12.695Z,50.20
2018-12-19T18:45:38.547Z,47.00
2018-12-19T18:48:08.455Z,45.90
2018-12-19T18:50:37.904Z,46.10
2018-12-19T18:53:07.673Z,42.10
2018-12-19T18:55:37.414Z,40.70
2018-12-19T18:58:07.003Z,41.40
2018-12-19T19:00:36.676Z,39.70
2018-12-19T19:03:06.581Z,39.90
2018-12-19T19:05:36.116Z,37.20
2018-12-19T19:08:05.995Z,34.30
2018-12-19T19:10:35.147Z,35.60
2018-12-19T19:13:03.995Z,34.90
2018-12-19T19:15:34.025Z,37.10
2018-12-19T19:18:03.564Z,32.30
2018-12-19T19:20:33.231Z,32.40
2018-12-19T19:23:03.108Z,31.90
2018-12-19T19:25:32.443Z,31.90
2018-12-19T19:28:02.175Z,33.00
2018-12-19T19:30:31.770Z,34.40
2018-12-19T19:33:01.481Z,34.90
2018-12-19T19:35:30.998Z,35.90
2018-12-19T19:38:00.668Z,36.00
2018-12-19T19:40:29.948Z,35.60
2018-12-19T19:42:59.348Z,35.90
2018-12-19T19:45:28.646Z,37.60
2018-12-19T19:47:57.992Z,36.50
2018-12-19T19:50:27.857Z,37.10
2018-12-19T19:52:57.616Z,39.60
2018-12-19T19:55:26.427Z,39.40
2018-12-19T19:57:56.184Z,38.80
2018-12-19T20:00:29.495Z,36.80
2018-12-19T20:02:59.103Z,37.70
2018-12-19T20:05:28.569Z,36.20
2018-12-19T20:07:58.268Z,39.60
2018-12-19T20:10:27.780Z,37.10
2018-12-19T20:12:57.880Z,36.50
2018-12-19T20:15:27.814Z,36.20
2018-12-19T20:17:57.359Z,36.90
2018-12-19T20:20:26.816Z,36.80
2018-12-19T20:22:56.520Z,36.40
2018-12-19T20:25:26.424Z,34.80
2018-12-19T20:27:56.048Z,35.30
2018-12-19T20:30:25.560Z,34.40
2018-12-19T20:32:55.238Z,35.00
2018-12-19T20:35:24.739Z,35.30
2018-12-19T20:37:54.319Z,34.50
2018-12-19T20:40:23.824Z,36.50
2018-12-19T20:42:53.618Z,35.00
2018-12-19T20:45:23.184Z,34.90
2018-12-19T20:47:52.904Z,36.70
2018-12-19T20:50:22.691Z,36.20
2018-12-19T20:52:52.207Z,34.30
2018-12-19T20:55:21.512Z,33.70
2018-12-19T20:57:51.007Z,34.90
2018-12-19T21:00:20.521Z,35.40
2018-12-19T21:02:50.026Z,35.40
2018-12-19T21:05:19.561Z,35.50
2018-12-19T21:07:49.294Z,34.90
2018-12-19T21:10:18.652Z,35.80
2018-12-19T21:12:48.592Z,35.00
2018-12-19T21:15:18.269Z,34.80
2018-12-19T21:17:53.538Z,33.30
2018-12-19T21:20:23.137Z,34.30
2018-12-19T21:22:52.229Z,34.40
2018-12-19T21:25:21.721Z,35.10
2018-12-19T21:27:50.610Z,34.20
2018-12-19T21:30:20.102Z,33.30
2018-12-19T21:32:49.822Z,32.50
2018-12-19T21:35:19.529Z,34.10
2018-12-19T21:37:49.483Z,32.80
2018-12-19T21:40:19.173Z,35.30
2018-12-19T21:42:49.194Z,36.10
2018-12-19T21:45:18.658Z,37.00
2018-12-19T21:47:47.953Z,38.20
2018-12-19T21:50:17.071Z,37.50
2018-12-19T21:52:46.572Z,38.50
2018-12-19T21:55:15.853Z,38.40
2018-12-19T21:57:45.312Z,39.10
2018-12-19T22:00:18.887Z,39.30
2018-12-19T22:02:48.208Z,39.20
2018-12-19T22:05:16.938Z,38.90
2018-12-19T22:07:45.942Z,40.30
2018-12-19T22:10:15.103Z,40.20
2018-12-19T22:12:43.720Z,38.80
2018-12-19T22:15:12.425Z,39.20
2018-12-19T22:17:48.590Z,38.00
2018-12-19T22:20:17.722Z,37.20
2018-12-19T22:22:47.240Z,36.20
2018-12-19T22:25:16.524Z,33.90
2018-12-19T22:27:45.683Z,35.50
2018-12-19T22:30:14.839Z,35.70
2018-12-19T22:32:43.964Z,34.50
2018-12-19T22:35:13.049Z,35.10
2018-12-19T22:37:42.107Z,35.60
2018-12-19T22:40:11.404Z,34.90
2018-12-19T22:42:40.526Z,36.30
2018-12-19T22:45:09.660Z,34.80
2018-12-19T22:47:38.974Z,34.00
2018-12-19T22:50:07.695Z,34.60
2018-12-19T22:52:36.381Z,33.40
2018-12-19T22:55:05.176Z,33.30
2018-12-19T22:57:34.674Z,34.90
2018-12-19T23:00:05.150Z,34.20
2018-12-19T23:02:40.469Z,34.80
2018-12-19T23:05:09.251Z,34.70
2018-12-19T23:07:37.920Z,35.60
2018-12-19T23:10:06.631Z,36.60
2018-12-19T23:12:35.290Z,35.90
2018-12-19T23:15:04.210Z,36.90
2018-12-19T23:17:38.494Z,36.80
2018-12-19T23:20:09.363Z,36.60
2018-12-19T23:22:38.646Z,36.90
2018-12-19T23:25:08.216Z,37.90
2018-12-19T23:27:37.286Z,38.60
2018-12-19T23:30:07.187Z,38.30
2018-12-19T23:32:36.833Z,38.20
2018-12-19T23:35:05.710Z,37.70
2018-12-19T23:37:34.504Z,38.10
2018-12-19T23:40:03.244Z,37.30
2018-12-19T23:42:31.934Z,37.90
2018-12-19T23:45:00.639Z,38.80
2018-12-19T23:47:29.708Z,38.80
2018-12-19T23:49:58.422Z,40.20
2018-12-19T23:52:27.063Z,40.30
2018-12-19T23:54:56.153Z,41.60
2018-12-19T23:57:24.894Z,42.00
2018-12-19T23:59:54.116Z,43.50
